PWSweather.com
Personal Weather Stations
Station Observations

Acton, CA 93510

Lat: 34.47703, Lon: -118.17483

Elevation: 2900

Station Type: Davis Vantage Pro 2

http://www.actonastro.com/weather/current.php

High Low Average
Temperature 80.9°F27.2°C 47.7°F8.7°C 66.0°F18.9°C
Dew Point 50.6°F10.3°C 39.2°F4.0°C 45.1°F7.3°C
Winds 15.0 mph 24.1 kmh Calm Calm 3.0 mph S4.8 kmh S
Wind Gusts 17.0 mph27.4 kmh -- 7.0 mph11.3 kmh
Humidity 78% 24% 51%
Pressure 29.67 in1004.7 mb 29.62 in1003.0 mb -
Precipitation 0.00 in0.0 mm - -
Hour Temp Dew Point Humidity Winds Wind Gusts Pressure Precip Precip Rate Daily Precip Total
12:04 AM 53.6°F12.0°C 45.5°F7.5°C 74% Calm Calm -- 29.66 in1004.4 mb 0.00 in0.0 mm 0.00 in0.0 mm 0.00 in0.0 mm
12:09 AM 53.5°F11.9°C 45.4°F7.4°C 74% Calm Calm -- 29.66 in1004.4 mb 0.00 in0.0 mm 0.00 in0.0 mm 0.00 in0.0 mm
12:14 AM 53.2°F11.8°C 45.1°F7.3°C 74% 1.0 mph ENE1.6 kmh ENE 2.0 mph3.2 kmh 29.66 in1004.4 mb 0.00 in0.0 mm 0.00 in0.0 mm 0.00 in0.0 mm
12:19 AM 52.9°F11.6°C 44.8°F7.1°C 74% Calm Calm -- 29.66 in1004.4 mb 0.00 in0.0 mm 0.00 in0.0 mm 0.00 in0.0 mm
12:24 AM 52.8°F11.6°C 44.7°F7.1°C 74% Calm Calm -- 29.66 in1004.4 mb 0.00 in0.0 mm 0.00 in0.0 mm 0.00 in0.0 mm
12:29 AM 52.5°F11.4°C 44.5°F6.9°C 74% Calm Calm -- 29.66 in1004.4 mb 0.00 in0.0 mm 0.00 in0.0 mm 0.00 in0.0 mm
12:34 AM 52.5°F11.4°C 44.5°F6.9°C 74% 1.0 mph ENE1.6 kmh ENE 2.0 mph3.2 kmh 29.66 in1004.4 mb 0.00 in0.0 mm 0.00 in0.0 mm 0.00 in0.0 mm
12:39 AM 52.3°F11.3°C 44.6°F7.0°C 75% Calm Calm -- 29.66 in1004.4 mb 0.00 in0.0 mm 0.00 in0.0 mm 0.00 in0.0 mm
12:44 AM 52.3°F11.3°C 44.6°F7.0°C 75% Calm Calm -- 29.65 in1004.1 mb 0.00 in0.0 mm 0.00 in0.0 mm 0.00 in0.0 mm
12:49 AM 52.2°F11.2°C 44.5°F6.9°C 75% Calm Calm -- 29.65 in1004.1 mb 0.00 in0.0 mm 0.00 in0.0 mm 0.00 in0.0 mm
12:54 AM 51.9°F11.1°C 44.2°F6.8°C 75% Calm Calm -- 29.65 in1004.1 mb 0.00 in0.0 mm 0.00 in0.0 mm 0.00 in0.0 mm
12:59 AM 51.7°F10.9°C 44.0°F6.7°C 75% Calm Calm -- 29.65 in1004.1 mb 0.00 in0.0 mm 0.00 in0.0 mm 0.00 in0.0 mm
01:04 AM 51.6°F10.9°C 44.3°F6.8°C 76% Calm Calm -- 29.65 in1004.1 mb 0.00 in0.0 mm 0.00 in0.0 mm 0.00 in0.0 mm
01:09 AM 51.4°F10.8°C 44.1°F6.7°C 76% Calm Calm 1.0 mph1.6 kmh 29.65 in1004.1 mb 0.00 in0.0 mm 0.00 in0.0 mm 0.00 in0.0 mm
01:14 AM 51.3°F10.7°C 44.0°F6.7°C 76% Calm Calm 2.0 mph3.2 kmh 29.64 in1003.7 mb 0.00 in0.0 mm 0.00 in0.0 mm 0.00 in0.0 mm
01:19 AM 51.1°F10.6°C 43.8°F6.6°C 76% Calm Calm 2.0 mph3.2 kmh 29.64 in1003.7 mb 0.00 in0.0 mm 0.00 in0.0 mm 0.00 in0.0 mm
01:24 AM 51.1°F10.6°C 43.8°F6.6°C 76% 2.0 mph ENE3.2 kmh ENE 3.0 mph4.8 kmh 29.64 in1003.7 mb 0.00 in0.0 mm 0.00 in0.0 mm 0.00 in0.0 mm
01:29 AM 51.1°F10.6°C 43.8°F6.6°C 76% 1.0 mph ENE1.6 kmh ENE 3.0 mph4.8 kmh 29.64 in1003.7 mb 0.00 in0.0 mm 0.00 in0.0 mm 0.00 in0.0 mm
01:34 AM 51.1°F10.6°C 43.8°F6.6°C 76% Calm Calm -- 29.64 in1003.7 mb 0.00 in0.0 mm 0.00 in0.0 mm 0.00 in0.0 mm
01:39 AM 51.0°F10.6°C 43.7°F6.5°C 76% Calm Calm -- 29.64 in1003.7 mb 0.00 in0.0 mm 0.00 in0.0 mm 0.00 in0.0 mm
01:44 AM 50.8°F10.4°C 43.5°F6.4°C 76% Calm Calm -- 29.64 in1003.7 mb 0.00 in0.0 mm 0.00 in0.0 mm 0.00 in0.0 mm
01:49 AM 50.5°F10.3°C 43.2°F6.2°C 76% Calm Calm -- 29.64 in1003.7 mb 0.00 in0.0 mm 0.00 in0.0 mm 0.00 in0.0 mm
01:54 AM 50.4°F10.2°C 43.1°F6.2°C 76% Calm Calm -- 29.64 in1003.7 mb 0.00 in0.0 mm 0.00 in0.0 mm 0.00 in0.0 mm
01:59 AM 50.2°F10.1°C 42.9°F6.1°C 76% Calm Calm 1.0 mph1.6 kmh 29.65 in1004.1 mb 0.00 in0.0 mm 0.00 in0.0 mm 0.00 in0.0 mm
02:04 AM 49.9°F9.9°C 42.6°F5.9°C 76% Calm Calm -- 29.65 in1004.1 mb 0.00 in0.0 mm 0.00 in0.0 mm 0.00 in0.0 mm
02:09 AM 49.8°F9.9°C 42.5°F5.8°C 76% Calm Calm 1.0 mph1.6 kmh 29.65 in1004.1 mb 0.00 in0.0 mm 0.00 in0.0 mm 0.00 in0.0 mm
02:14 AM 49.8°F9.9°C 42.9°F6.1°C 77% 1.0 mph ENE1.6 kmh ENE 1.0 mph1.6 kmh 29.65 in1004.1 mb 0.00 in0.0 mm 0.00 in0.0 mm 0.00 in0.0 mm
02:19 AM 49.9°F9.9°C 43.0°F6.1°C 77% 2.0 mph ENE3.2 kmh ENE 3.0 mph4.8 kmh 29.65 in1004.1 mb 0.00 in0.0 mm 0.00 in0.0 mm 0.00 in0.0 mm
02:24 AM 49.9°F9.9°C 43.0°F6.1°C 77% Calm Calm -- 29.65 in1004.1 mb 0.00 in0.0 mm 0.00 in0.0 mm 0.00 in0.0 mm
02:29 AM 49.8°F9.9°C 42.9°F6.1°C 77% Calm Calm -- 29.65 in1004.1 mb 0.00 in0.0 mm 0.00 in0.0 mm 0.00 in0.0 mm
02:34 AM 49.8°F9.9°C 42.9°F6.1°C 77% Calm Calm -- 29.65 in1004.1 mb 0.00 in0.0 mm 0.00 in0.0 mm 0.00 in0.0 mm
02:39 AM 49.8°F9.9°C 42.9°F6.1°C 77% Calm Calm -- 29.65 in1004.1 mb 0.00 in0.0 mm 0.00 in0.0 mm 0.00 in0.0 mm
02:44 AM 49.8°F9.9°C 42.9°F6.1°C 77% Calm Calm -- 29.65 in1004.1 mb 0.00 in0.0 mm 0.00 in0.0 mm 0.00 in0.0 mm
02:49 AM 49.6°F9.8°C 42.7°F5.9°C 77% Calm Calm -- 29.65 in1004.1 mb 0.00 in0.0 mm 0.00 in0.0 mm 0.00 in0.0 mm
02:54 AM 49.5°F9.7°C 42.6°F5.9°C 77% Calm Calm 1.0 mph1.6 kmh 29.65 in1004.1 mb 0.00 in0.0 mm 0.00 in0.0 mm 0.00 in0.0 mm
02:59 AM 49.4°F9.7°C 42.5°F5.8°C 77% Calm Calm -- 29.66 in1004.4 mb 0.00 in0.0 mm 0.00 in0.0 mm 0.00 in0.0 mm
03:04 AM 49.2°F9.6°C 42.3°F5.7°C 77% Calm Calm -- 29.66 in1004.4 mb 0.00 in0.0 mm 0.00 in0.0 mm 0.00 in0.0 mm
03:09 AM 49.1°F9.5°C 41.9°F5.5°C 76% Calm Calm -- 29.66 in1004.4 mb 0.00 in0.0 mm 0.00 in0.0 mm 0.00 in0.0 mm
03:14 AM 48.9°F9.4°C 41.7°F5.4°C 76% Calm Calm -- 29.65 in1004.1 mb 0.00 in0.0 mm 0.00 in0.0 mm 0.00 in0.0 mm
03:19 AM 48.9°F9.4°C 42.0°F5.6°C 77% Calm Calm -- 29.65 in1004.1 mb 0.00 in0.0 mm 0.00 in0.0 mm 0.00 in0.0 mm
03:24 AM 48.8°F9.3°C 41.9°F5.5°C 77% Calm Calm -- 29.65 in1004.1 mb 0.00 in0.0 mm 0.00 in0.0 mm 0.00 in0.0 mm
03:29 AM 48.8°F9.3°C 41.6°F5.3°C 76% 1.0 mph ENE1.6 kmh ENE 2.0 mph3.2 kmh 29.65 in1004.1 mb 0.00 in0.0 mm 0.00 in0.0 mm 0.00 in0.0 mm
03:34 AM 48.8°F9.3°C 41.9°F5.5°C 77% Calm Calm -- 29.65 in1004.1 mb 0.00 in0.0 mm 0.00 in0.0 mm 0.00 in0.0 mm
03:39 AM 48.6°F9.2°C 41.7°F5.4°C 77% Calm Calm -- 29.65 in1004.1 mb 0.00 in0.0 mm 0.00 in0.0 mm 0.00 in0.0 mm
03:44 AM 48.5°F9.2°C 41.6°F5.3°C 77% Calm Calm -- 29.65 in1004.1 mb 0.00 in0.0 mm 0.00 in0.0 mm 0.00 in0.0 mm
03:49 AM 48.5°F9.2°C 41.6°F5.3°C 77% Calm Calm -- 29.65 in1004.1 mb 0.00 in0.0 mm 0.00 in0.0 mm 0.00 in0.0 mm
03:54 AM 48.5°F9.2°C 41.6°F5.3°C 77% Calm Calm -- 29.65 in1004.1 mb 0.00 in0.0 mm 0.00 in0.0 mm 0.00 in0.0 mm
03:59 AM 48.3°F9.1°C 41.4°F5.2°C 77% Calm Calm -- 29.66 in1004.4 mb 0.00 in0.0 mm 0.00 in0.0 mm 0.00 in0.0 mm
04:04 AM 48.2°F9.0°C 41.3°F5.2°C 77% Calm Calm -- 29.66 in1004.4 mb 0.00 in0.0 mm 0.00 in0.0 mm 0.00 in0.0 mm
04:09 AM 48.0°F8.9°C 41.1°F5.1°C 77% Calm Calm 1.0 mph1.6 kmh 29.66 in1004.4 mb 0.00 in0.0 mm 0.00 in0.0 mm 0.00 in0.0 mm
04:14 AM 47.9°F8.8°C 41.0°F5.0°C 77% Calm Calm -- 29.65 in1004.1 mb 0.00 in0.0 mm 0.00 in0.0 mm 0.00 in0.0 mm
04:19 AM 47.9°F8.8°C 41.0°F5.0°C 77% Calm Calm -- 29.65 in1004.1 mb 0.00 in0.0 mm 0.00 in0.0 mm 0.00 in0.0 mm
04:24 AM 47.9°F8.8°C 41.0°F5.0°C 77% Calm Calm -- 29.65 in1004.1 mb 0.00 in0.0 mm 0.00 in0.0 mm 0.00 in0.0 mm
04:29 AM 47.7°F8.7°C 40.8°F4.9°C 77% Calm Calm -- 29.65 in1004.1 mb 0.00 in0.0 mm 0.00 in0.0 mm 0.00 in0.0 mm
04:34 AM 47.7°F8.7°C 40.8°F4.9°C 77% Calm Calm -- 29.65 in1004.1 mb 0.00 in0.0 mm 0.00 in0.0 mm 0.00 in0.0 mm
04:39 AM 47.7°F8.7°C 40.8°F4.9°C 77% Calm Calm -- 29.65 in1004.1 mb 0.00 in0.0 mm 0.00 in0.0 mm 0.00 in0.0 mm
04:44 AM 47.7°F8.7°C 41.2°F5.1°C 78% Calm Calm -- 29.65 in1004.1 mb 0.00 in0.0 mm 0.00 in0.0 mm 0.00 in0.0 mm
04:49 AM 47.7°F8.7°C 41.2°F5.1°C 78% Calm Calm -- 29.65 in1004.1 mb 0.00 in0.0 mm 0.00 in0.0 mm 0.00 in0.0 mm
04:54 AM 47.7°F8.7°C 41.2°F5.1°C 78% Calm Calm -- 29.65 in1004.1 mb 0.00 in0.0 mm 0.00 in0.0 mm 0.00 in0.0 mm
04:59 AM 47.9°F8.8°C 41.4°F5.2°C 78% Calm Calm -- 29.65 in1004.1 mb 0.00 in0.0 mm 0.00 in0.0 mm 0.00 in0.0 mm
05:04 AM 48.0°F8.9°C 41.5°F5.3°C 78% 1.0 mph SW1.6 kmh SW 1.0 mph1.6 kmh 29.65 in1004.1 mb 0.00 in0.0 mm 0.00 in0.0 mm 0.00 in0.0 mm
05:09 AM 48.5°F9.2°C 42.0°F5.6°C 78% Calm Calm -- 29.65 in1004.1 mb 0.00 in0.0 mm 0.00 in0.0 mm 0.00 in0.0 mm
05:14 AM 48.9°F9.4°C 42.3°F5.7°C 78% Calm Calm -- 29.66 in1004.4 mb 0.00 in0.0 mm 0.00 in0.0 mm 0.00 in0.0 mm
05:19 AM 49.5°F9.7°C 42.9°F6.1°C 78% Calm Calm -- 29.66 in1004.4 mb 0.00 in0.0 mm 0.00 in0.0 mm 0.00 in0.0 mm
05:24 AM 49.8°F9.9°C 42.9°F6.1°C 77% Calm Calm 2.0 mph3.2 kmh 29.66 in1004.4 mb 0.00 in0.0 mm 0.00 in0.0 mm 0.00 in0.0 mm
05:29 AM 49.9°F9.9°C 43.0°F6.1°C 77% Calm Calm -- 29.66 in1004.4 mb 0.00 in0.0 mm 0.00 in0.0 mm 0.00 in0.0 mm
05:34 AM 49.8°F9.9°C 42.5°F5.8°C 76% Calm Calm -- 29.66 in1004.4 mb 0.00 in0.0 mm 0.00 in0.0 mm 0.00 in0.0 mm
05:39 AM 49.8°F9.9°C 42.5°F5.8°C 76% Calm Calm -- 29.66 in1004.4 mb 0.00 in0.0 mm 0.00 in0.0 mm 0.00 in0.0 mm
05:44 AM 49.9°F9.9°C 42.6°F5.9°C 76% Calm Calm -- 29.66 in1004.4 mb 0.00 in0.0 mm 0.00 in0.0 mm 0.00 in0.0 mm
05:49 AM 50.5°F10.3°C 43.2°F6.2°C 76% Calm Calm -- 29.66 in1004.4 mb 0.00 in0.0 mm 0.00 in0.0 mm 0.00 in0.0 mm
05:54 AM 51.1°F10.6°C 43.5°F6.4°C 75% Calm Calm -- 29.66 in1004.4 mb 0.00 in0.0 mm 0.00 in0.0 mm 0.00 in0.0 mm
05:59 AM 52.2°F11.2°C 44.5°F6.9°C 75% Calm Calm -- 29.66 in1004.4 mb 0.00 in0.0 mm 0.00 in0.0 mm 0.00 in0.0 mm
06:04 AM 52.9°F11.6°C 44.8°F7.1°C 74% Calm Calm -- 29.66 in1004.4 mb 0.00 in0.0 mm 0.00 in0.0 mm 0.00 in0.0 mm
06:09 AM 53.8°F12.1°C 45.3°F7.4°C 73% Calm Calm -- 29.66 in1004.4 mb 0.00 in0.0 mm 0.00 in0.0 mm 0.00 in0.0 mm
06:14 AM 54.5°F12.5°C 45.3°F7.4°C 71% Calm Calm -- 29.67 in1004.7 mb 0.00 in0.0 mm 0.00 in0.0 mm 0.00 in0.0 mm
06:19 AM 55.1°F12.8°C 45.5°F7.5°C 70% Calm Calm -- 29.67 in1004.7 mb 0.00 in0.0 mm 0.00 in0.0 mm 0.00 in0.0 mm
06:24 AM 55.9°F13.3°C 45.9°F7.7°C 69% Calm Calm -- 29.67 in1004.7 mb 0.00 in0.0 mm 0.00 in0.0 mm 0.00 in0.0 mm
06:29 AM 56.6°F13.7°C 45.8°F7.7°C 67% Calm Calm -- 29.66 in1004.4 mb 0.00 in0.0 mm 0.00 in0.0 mm 0.00 in0.0 mm
06:34 AM 56.9°F13.8°C 45.7°F7.6°C 66% Calm Calm -- 29.66 in1004.4 mb 0.00 in0.0 mm 0.00 in0.0 mm 0.00 in0.0 mm
06:39 AM 57.0°F13.9°C 45.4°F7.4°C 65% Calm Calm -- 29.66 in1004.4 mb 0.00 in0.0 mm 0.00 in0.0 mm 0.00 in0.0 mm
06:44 AM 57.3°F14.1°C 45.6°F7.6°C 65% Calm Calm 2.0 mph3.2 kmh 29.67 in1004.7 mb 0.00 in0.0 mm 0.00 in0.0 mm 0.00 in0.0 mm
06:49 AM 57.6°F14.2°C 45.5°F7.5°C 64% Calm Calm 2.0 mph3.2 kmh 29.67 in1004.7 mb 0.00 in0.0 mm 0.00 in0.0 mm 0.00 in0.0 mm
06:54 AM 58.3°F14.6°C 45.8°F7.7°C 63% 1.0 mph SW1.6 kmh SW 1.0 mph1.6 kmh 29.67 in1004.7 mb 0.00 in0.0 mm 0.00 in0.0 mm 0.00 in0.0 mm
06:59 AM 59.5°F15.3°C 46.5°F8.1°C 62% Calm Calm 2.0 mph3.2 kmh 29.66 in1004.4 mb 0.00 in0.0 mm 0.00 in0.0 mm 0.00 in0.0 mm
07:04 AM 60.5°F15.8°C 46.1°F7.8°C 59% Calm Calm 2.0 mph3.2 kmh 29.66 in1004.4 mb 0.00 in0.0 mm 0.00 in0.0 mm 0.00 in0.0 mm
07:09 AM 62.0°F16.7°C 46.1°F7.8°C 56% 2.0 mph SE3.2 kmh SE 2.0 mph3.2 kmh 29.66 in1004.4 mb 0.00 in0.0 mm 0.00 in0.0 mm 0.00 in0.0 mm
07:14 AM 62.9°F17.2°C 45.5°F7.5°C 53% 1.0 mph S1.6 kmh S 4.0 mph6.4 kmh 29.66 in1004.4 mb 0.00 in0.0 mm 0.00 in0.0 mm 0.00 in0.0 mm
07:19 AM 63.5°F17.5°C 46.1°F7.8°C 53% Calm Calm 4.0 mph6.4 kmh 29.66 in1004.4 mb 0.00 in0.0 mm 0.00 in0.0 mm 0.00 in0.0 mm
07:24 AM 64.5°F18.1°C 44.9°F7.2°C 49% 3.0 mph S4.8 kmh S 4.0 mph6.4 kmh 29.66 in1004.4 mb 0.00 in0.0 mm 0.00 in0.0 mm 0.00 in0.0 mm
07:29 AM 65.5°F18.6°C 45.3°F7.4°C 48% 1.0 mph SE1.6 kmh SE 4.0 mph6.4 kmh 29.66 in1004.4 mb 0.00 in0.0 mm 0.00 in0.0 mm 0.00 in0.0 mm
07:34 AM 66.1°F18.9°C 44.1°F6.7°C 45% 2.0 mph SSE3.2 kmh SSE 4.0 mph6.4 kmh 29.66 in1004.4 mb 0.00 in0.0 mm 0.00 in0.0 mm 0.00 in0.0 mm
07:39 AM 67.4°F19.7°C 44.7°F7.1°C 44% 1.0 mph ESE1.6 kmh ESE 4.0 mph6.4 kmh 29.66 in1004.4 mb 0.00 in0.0 mm 0.00 in0.0 mm 0.00 in0.0 mm
07:44 AM 68.6°F20.3°C 44.6°F7.0°C 42% 4.0 mph ENE6.4 kmh ENE 5.0 mph8.0 kmh 29.65 in1004.1 mb 0.00 in0.0 mm 0.00 in0.0 mm 0.00 in0.0 mm
07:49 AM 68.9°F20.5°C 42.9°F6.1°C 39% 9.0 mph NE14.5 kmh NE 9.0 mph14.5 kmh 29.65 in1004.1 mb 0.00 in0.0 mm 0.00 in0.0 mm 0.00 in0.0 mm
07:54 AM 68.8°F20.4°C 42.8°F6.0°C 39% 6.0 mph ENE9.7 kmh ENE 9.0 mph14.5 kmh 29.65 in1004.1 mb 0.00 in0.0 mm 0.00 in0.0 mm 0.00 in0.0 mm
07:59 AM 69.1°F20.6°C 43.8°F6.6°C 40% 5.0 mph ESE8.0 kmh ESE 10.0 mph16.1 kmh 29.65 in1004.1 mb 0.00 in0.0 mm 0.00 in0.0 mm 0.00 in0.0 mm
08:04 AM 69.1°F20.6°C 42.4°F5.8°C 38% 5.0 mph SE8.0 kmh SE 10.0 mph16.1 kmh 29.65 in1004.1 mb 0.00 in0.0 mm 0.00 in0.0 mm 0.00 in0.0 mm
08:09 AM 69.6°F20.9°C 42.9°F6.1°C 38% 1.0 mph NE1.6 kmh NE 10.0 mph16.1 kmh 29.65 in1004.1 mb 0.00 in0.0 mm 0.00 in0.0 mm 0.00 in0.0 mm
08:14 AM 70.1°F21.2°C 43.3°F6.3°C 38% 5.0 mph E8.0 kmh E 10.0 mph16.1 kmh 29.66 in1004.4 mb 0.00 in0.0 mm 0.00 in0.0 mm 0.00 in0.0 mm
08:19 AM 69.9°F21.1°C 43.1°F6.2°C 38% 4.0 mph E6.4 kmh E 10.0 mph16.1 kmh 29.66 in1004.4 mb 0.00 in0.0 mm 0.00 in0.0 mm 0.00 in0.0 mm
08:24 AM 70.3°F21.3°C 44.8°F7.1°C 40% 4.0 mph SSE6.4 kmh SSE 10.0 mph16.1 kmh 29.66 in1004.4 mb 0.00 in0.0 mm 0.00 in0.0 mm 0.00 in0.0 mm
08:29 AM 70.9°F21.6°C 44.7°F7.1°C 39% 3.0 mph ESE4.8 kmh ESE 11.0 mph17.7 kmh 29.65 in1004.1 mb 0.00 in0.0 mm 0.00 in0.0 mm 0.00 in0.0 mm
08:34 AM 71.6°F22.0°C 44.6°F7.0°C 38% 5.0 mph E8.0 kmh E 11.0 mph17.7 kmh 29.65 in1004.1 mb 0.00 in0.0 mm 0.00 in0.0 mm 0.00 in0.0 mm
08:39 AM 71.5°F21.9°C 42.4°F5.8°C 35% 2.0 mph NE3.2 kmh NE 11.0 mph17.7 kmh 29.65 in1004.1 mb 0.00 in0.0 mm 0.00 in0.0 mm 0.00 in0.0 mm
08:44 AM 71.5°F21.9°C 44.5°F6.9°C 38% 5.0 mph E8.0 kmh E 11.0 mph17.7 kmh 29.65 in1004.1 mb 0.00 in0.0 mm 0.00 in0.0 mm 0.00 in0.0 mm
08:49 AM 71.8°F22.1°C 43.4°F6.3°C 36% 4.0 mph ENE6.4 kmh ENE 12.0 mph19.3 kmh 29.65 in1004.1 mb 0.00 in0.0 mm 0.00 in0.0 mm 0.00 in0.0 mm
08:54 AM 72.3°F22.4°C 43.1°F6.2°C 35% 4.0 mph E6.4 kmh E 12.0 mph19.3 kmh 29.65 in1004.1 mb 0.00 in0.0 mm 0.00 in0.0 mm 0.00 in0.0 mm
08:59 AM 72.7°F22.6°C 42.7°F5.9°C 34% 9.0 mph ENE14.5 kmh ENE 12.0 mph19.3 kmh 29.65 in1004.1 mb 0.00 in0.0 mm 0.00 in0.0 mm 0.00 in0.0 mm
09:04 AM 72.1°F22.3°C 42.9°F6.1°C 35% 6.0 mph E9.7 kmh E 13.0 mph20.9 kmh 29.65 in1004.1 mb 0.00 in0.0 mm 0.00 in0.0 mm 0.00 in0.0 mm
09:09 AM 72.5°F22.5°C 43.3°F6.3°C 35% 13.0 mph NE20.9 kmh NE 15.0 mph24.1 kmh 29.65 in1004.1 mb 0.00 in0.0 mm 0.00 in0.0 mm 0.00 in0.0 mm
09:14 AM 72.3°F22.4°C 42.3°F5.7°C 34% 2.0 mph NE3.2 kmh NE 15.0 mph24.1 kmh 29.66 in1004.4 mb 0.00 in0.0 mm 0.00 in0.0 mm 0.00 in0.0 mm
09:19 AM 72.1°F22.3°C 41.4°F5.2°C 33% 7.0 mph ENE11.3 kmh ENE 15.0 mph24.1 kmh 29.66 in1004.4 mb 0.00 in0.0 mm 0.00 in0.0 mm 0.00 in0.0 mm
09:24 AM 72.0°F22.2°C 41.3°F5.2°C 33% 4.0 mph E6.4 kmh E 15.0 mph24.1 kmh 29.66 in1004.4 mb 0.00 in0.0 mm 0.00 in0.0 mm 0.00 in0.0 mm
09:29 AM 72.5°F22.5°C 42.5°F5.8°C 34% 1.0 mph E1.6 kmh E 12.0 mph19.3 kmh 29.65 in1004.1 mb 0.00 in0.0 mm 0.00 in0.0 mm 0.00 in0.0 mm
09:34 AM 73.0°F22.8°C 42.2°F5.7°C 33% 5.0 mph NE8.0 kmh NE 12.0 mph19.3 kmh 29.65 in1004.1 mb 0.00 in0.0 mm 0.00 in0.0 mm 0.00 in0.0 mm
09:39 AM 73.0°F22.8°C 42.2°F5.7°C 33% 3.0 mph E4.8 kmh E 11.0 mph17.7 kmh 29.65 in1004.1 mb 0.00 in0.0 mm 0.00 in0.0 mm 0.00 in0.0 mm
09:44 AM 73.2°F22.9°C 43.9°F6.6°C 35% 4.0 mph S6.4 kmh S 14.0 mph22.5 kmh 29.65 in1004.1 mb 0.00 in0.0 mm 0.00 in0.0 mm 0.00 in0.0 mm
09:49 AM 73.5°F23.1°C 41.8°F5.4°C 32% 5.0 mph NNE8.0 kmh NNE 14.0 mph22.5 kmh 29.65 in1004.1 mb 0.00 in0.0 mm 0.00 in0.0 mm 0.00 in0.0 mm
09:54 AM 73.2°F22.9°C 42.4°F5.8°C 33% 3.0 mph ENE4.8 kmh ENE 14.0 mph22.5 kmh 29.65 in1004.1 mb 0.00 in0.0 mm 0.00 in0.0 mm 0.00 in0.0 mm
09:59 AM 73.5°F23.1°C 41.8°F5.4°C 32% 7.0 mph ENE11.3 kmh ENE 14.0 mph22.5 kmh 29.65 in1004.1 mb 0.00 in0.0 mm 0.00 in0.0 mm 0.00 in0.0 mm
10:04 AM 74.4°F23.6°C 40.9°F4.9°C 30% 6.0 mph NE9.7 kmh NE 14.0 mph22.5 kmh 29.65 in1004.1 mb 0.00 in0.0 mm 0.00 in0.0 mm 0.00 in0.0 mm
10:09 AM 74.2°F23.4°C 40.8°F4.9°C 30% 4.0 mph NE6.4 kmh NE 14.0 mph22.5 kmh 29.65 in1004.1 mb 0.00 in0.0 mm 0.00 in0.0 mm 0.00 in0.0 mm
10:14 AM 74.9°F23.8°C 43.0°F6.1°C 32% 3.0 mph E4.8 kmh E 12.0 mph19.3 kmh 29.66 in1004.4 mb 0.00 in0.0 mm 0.00 in0.0 mm 0.00 in0.0 mm
10:19 AM 75.4°F24.1°C 40.9°F4.9°C 29% 3.0 mph N4.8 kmh N 12.0 mph19.3 kmh 29.66 in1004.4 mb 0.00 in0.0 mm 0.00 in0.0 mm 0.00 in0.0 mm
10:24 AM 75.4°F24.1°C 41.8°F5.4°C 30% 3.0 mph SE4.8 kmh SE 13.0 mph20.9 kmh 29.66 in1004.4 mb 0.00 in0.0 mm 0.00 in0.0 mm 0.00 in0.0 mm
10:29 AM 76.1°F24.5°C 42.4°F5.8°C 30% 2.0 mph SE3.2 kmh SE 13.0 mph20.9 kmh 29.65 in1004.1 mb 0.00 in0.0 mm 0.00 in0.0 mm 0.00 in0.0 mm
10:34 AM 76.5°F24.7°C 41.0°F5.0°C 28% 2.0 mph NE3.2 kmh NE 13.0 mph20.9 kmh 29.65 in1004.1 mb 0.00 in0.0 mm 0.00 in0.0 mm 0.00 in0.0 mm
10:39 AM 76.1°F24.5°C 40.6°F4.8°C 28% 10.0 mph NE16.1 kmh NE 13.0 mph20.9 kmh 29.65 in1004.1 mb 0.00 in0.0 mm 0.00 in0.0 mm 0.00 in0.0 mm
10:44 AM 76.0°F24.4°C 39.6°F4.2°C 27% 10.0 mph NE16.1 kmh NE 13.0 mph20.9 kmh 29.65 in1004.1 mb 0.00 in0.0 mm 0.00 in0.0 mm 0.00 in0.0 mm
10:49 AM 75.6°F24.2°C 39.2°F4.0°C 27% 3.0 mph NE4.8 kmh NE 13.0 mph20.9 kmh 29.65 in1004.1 mb 0.00 in0.0 mm 0.00 in0.0 mm 0.00 in0.0 mm
10:54 AM 76.1°F24.5°C 39.7°F4.3°C 27% 2.0 mph SSW3.2 kmh SSW 12.0 mph19.3 kmh 29.65 in1004.1 mb 0.00 in0.0 mm 0.00 in0.0 mm 0.00 in0.0 mm
10:59 AM 76.7°F24.8°C 40.2°F4.6°C 27% 5.0 mph ESE8.0 kmh ESE 12.0 mph19.3 kmh 29.65 in1004.1 mb 0.00 in0.0 mm 0.00 in0.0 mm 0.00 in0.0 mm
11:04 AM 77.4°F25.2°C 40.8°F4.9°C 27% 6.0 mph ENE9.7 kmh ENE 7.0 mph11.3 kmh 29.65 in1004.1 mb 0.00 in0.0 mm 0.00 in0.0 mm 0.00 in0.0 mm
11:09 AM 77.6°F25.3°C 41.0°F5.0°C 27% 3.0 mph SE4.8 kmh SE 7.0 mph11.3 kmh 29.65 in1004.1 mb 0.00 in0.0 mm 0.00 in0.0 mm 0.00 in0.0 mm
11:14 AM 77.9°F25.5°C 41.2°F5.1°C 27% 5.0 mph SSE8.0 kmh SSE 7.0 mph11.3 kmh 29.64 in1003.7 mb 0.00 in0.0 mm 0.00 in0.0 mm 0.00 in0.0 mm
11:19 AM 78.3°F25.7°C 40.6°F4.8°C 26% 1.0 mph NE1.6 kmh NE 13.0 mph20.9 kmh 29.64 in1003.7 mb 0.00 in0.0 mm 0.00 in0.0 mm 0.00 in0.0 mm
11:24 AM 78.8°F26.0°C 41.0°F5.0°C 26% 3.0 mph SSE4.8 kmh SSE 13.0 mph20.9 kmh 29.64 in1003.7 mb 0.00 in0.0 mm 0.00 in0.0 mm 0.00 in0.0 mm
11:29 AM 79.2°F26.2°C 42.3°F5.7°C 27% 5.0 mph SW8.0 kmh SW 13.0 mph20.9 kmh 29.64 in1003.7 mb 0.00 in0.0 mm 0.00 in0.0 mm 0.00 in0.0 mm
11:34 AM 79.4°F26.3°C 41.5°F5.3°C 26% 4.0 mph S6.4 kmh S 13.0 mph20.9 kmh 29.64 in1003.7 mb 0.00 in0.0 mm 0.00 in0.0 mm 0.00 in0.0 mm
11:39 AM 79.6°F26.4°C 39.6°F4.2°C 24% 4.0 mph E6.4 kmh E 9.0 mph14.5 kmh 29.64 in1003.7 mb 0.00 in0.0 mm 0.00 in0.0 mm 0.00 in0.0 mm
11:44 AM 79.6°F26.4°C 39.6°F4.2°C 24% 2.0 mph S3.2 kmh S 10.0 mph16.1 kmh 29.64 in1003.7 mb 0.00 in0.0 mm 0.00 in0.0 mm 0.00 in0.0 mm
11:49 AM 79.9°F26.6°C 43.9°F6.6°C 28% 2.0 mph SE3.2 kmh SE 10.0 mph16.1 kmh 29.64 in1003.7 mb 0.00 in0.0 mm 0.00 in0.0 mm 0.00 in0.0 mm
11:54 AM 79.9°F26.6°C 42.9°F6.1°C 27% 1.0 mph NNE1.6 kmh NNE 10.0 mph16.1 kmh 29.64 in1003.7 mb 0.00 in0.0 mm 0.00 in0.0 mm 0.00 in0.0 mm
11:59 AM 80.3°F26.8°C 44.2°F6.8°C 28% 7.0 mph N11.3 kmh N 10.0 mph16.1 kmh 29.62 in1003.0 mb 0.00 in0.0 mm 0.00 in0.0 mm 0.00 in0.0 mm
12:04 PM 80.7°F27.1°C 43.6°F6.4°C 27% 1.0 mph SW1.6 kmh SW 11.0 mph17.7 kmh 29.62 in1003.0 mb 0.00 in0.0 mm 0.00 in0.0 mm 0.00 in0.0 mm
12:09 PM 80.9°F27.2°C 44.7°F7.1°C 28% 2.0 mph NW3.2 kmh NW 11.0 mph17.7 kmh 29.62 in1003.0 mb 0.00 in0.0 mm 0.00 in0.0 mm 0.00 in0.0 mm
12:14 PM 80.9°F27.2°C 43.8°F6.6°C 27% 4.0 mph N6.4 kmh N 12.0 mph19.3 kmh 29.63 in1003.4 mb 0.00 in0.0 mm 0.00 in0.0 mm 0.00 in0.0 mm
12:19 PM 80.7°F27.1°C 44.5°F6.9°C 28% 2.0 mph SW3.2 kmh SW 12.0 mph19.3 kmh 29.63 in1003.4 mb 0.00 in0.0 mm 0.00 in0.0 mm 0.00 in0.0 mm
12:24 PM 80.7°F27.1°C 44.5°F6.9°C 28% 2.0 mph SW3.2 kmh SW 12.0 mph19.3 kmh 29.63 in1003.4 mb 0.00 in0.0 mm 0.00 in0.0 mm 0.00 in0.0 mm
12:29 PM 80.7°F27.1°C 45.5°F7.5°C 29% 2.0 mph NW3.2 kmh NW 12.0 mph19.3 kmh 29.62 in1003.0 mb 0.00 in0.0 mm 0.00 in0.0 mm 0.00 in0.0 mm
12:34 PM 80.7°F27.1°C 44.5°F6.9°C 28% 3.0 mph SE4.8 kmh SE 11.0 mph17.7 kmh 29.62 in1003.0 mb 0.00 in0.0 mm 0.00 in0.0 mm 0.00 in0.0 mm
12:39 PM 80.7°F27.1°C 44.5°F6.9°C 28% 1.0 mph NE1.6 kmh NE 12.0 mph19.3 kmh 29.62 in1003.0 mb 0.00 in0.0 mm 0.00 in0.0 mm 0.00 in0.0 mm
12:44 PM 80.9°F27.2°C 43.8°F6.6°C 27% 7.0 mph NW11.3 kmh NW 13.0 mph20.9 kmh 29.62 in1003.0 mb 0.00 in0.0 mm 0.00 in0.0 mm 0.00 in0.0 mm
12:49 PM 80.7°F27.1°C 47.2°F8.4°C 31% 7.0 mph W11.3 kmh W 14.0 mph22.5 kmh 29.62 in1003.0 mb 0.00 in0.0 mm 0.00 in0.0 mm 0.00 in0.0 mm
12:54 PM 80.5°F26.9°C 46.2°F7.9°C 30% 3.0 mph NW4.8 kmh NW 14.0 mph22.5 kmh 29.62 in1003.0 mb 0.00 in0.0 mm 0.00 in0.0 mm 0.00 in0.0 mm
12:59 PM 80.7°F27.1°C 46.4°F8.0°C 30% 3.0 mph NW4.8 kmh NW 17.0 mph27.4 kmh 29.63 in1003.4 mb 0.00 in0.0 mm 0.00 in0.0 mm 0.00 in0.0 mm
01:04 PM 80.5°F26.9°C 47.1°F8.4°C 31% 5.0 mph NW8.0 kmh NW 17.0 mph27.4 kmh 29.63 in1003.4 mb 0.00 in0.0 mm 0.00 in0.0 mm 0.00 in0.0 mm
01:09 PM 79.8°F26.6°C 46.5°F8.1°C 31% 6.0 mph NW9.7 kmh NW 17.0 mph27.4 kmh 29.63 in1003.4 mb 0.00 in0.0 mm 0.00 in0.0 mm 0.00 in0.0 mm
01:14 PM 80.1°F26.7°C 45.8°F7.7°C 30% 12.0 mph S19.3 kmh S 17.0 mph27.4 kmh 29.63 in1003.4 mb 0.00 in0.0 mm 0.00 in0.0 mm 0.00 in0.0 mm
01:19 PM 80.3°F26.8°C 46.0°F7.8°C 30% 11.0 mph WNW17.7 kmh WNW 14.0 mph22.5 kmh 29.63 in1003.4 mb 0.00 in0.0 mm 0.00 in0.0 mm 0.00 in0.0 mm
01:24 PM 79.9°F26.6°C 46.5°F8.1°C 31% 3.0 mph SSE4.8 kmh SSE 14.0 mph22.5 kmh 29.63 in1003.4 mb 0.00 in0.0 mm 0.00 in0.0 mm 0.00 in0.0 mm
01:29 PM 79.9°F26.6°C 46.5°F8.1°C 31% 6.0 mph SW9.7 kmh SW 12.0 mph19.3 kmh 29.64 in1003.7 mb 0.00 in0.0 mm 0.00 in0.0 mm 0.00 in0.0 mm
01:34 PM 80.1°F26.7°C 46.7°F8.2°C 31% 10.0 mph WNW16.1 kmh WNW 12.0 mph19.3 kmh 29.64 in1003.7 mb 0.00 in0.0 mm 0.00 in0.0 mm 0.00 in0.0 mm
01:39 PM 79.8°F26.6°C 46.5°F8.1°C 31% 12.0 mph W19.3 kmh W 13.0 mph20.9 kmh 29.64 in1003.7 mb 0.00 in0.0 mm 0.00 in0.0 mm 0.00 in0.0 mm
01:44 PM 80.1°F26.7°C 46.7°F8.2°C 31% 9.0 mph NW14.5 kmh NW 13.0 mph20.9 kmh 29.64 in1003.7 mb 0.00 in0.0 mm 0.00 in0.0 mm 0.00 in0.0 mm
01:49 PM 80.5°F26.9°C 45.3°F7.4°C 29% 10.0 mph WNW16.1 kmh WNW 14.0 mph22.5 kmh 29.64 in1003.7 mb 0.00 in0.0 mm 0.00 in0.0 mm 0.00 in0.0 mm
01:54 PM 80.5°F26.9°C 47.1°F8.4°C 31% 11.0 mph NW17.7 kmh NW 16.0 mph25.7 kmh 29.64 in1003.7 mb 0.00 in0.0 mm 0.00 in0.0 mm 0.00 in0.0 mm
01:59 PM 80.5°F26.9°C 46.2°F7.9°C 30% 5.0 mph NW8.0 kmh NW 16.0 mph25.7 kmh 29.63 in1003.4 mb 0.00 in0.0 mm 0.00 in0.0 mm 0.00 in0.0 mm
02:04 PM 80.3°F26.8°C 46.0°F7.8°C 30% 9.0 mph W14.5 kmh W 16.0 mph25.7 kmh 29.63 in1003.4 mb 0.00 in0.0 mm 0.00 in0.0 mm 0.00 in0.0 mm
02:09 PM 80.1°F26.7°C 46.7°F8.2°C 31% 6.0 mph WNW9.7 kmh WNW 16.0 mph25.7 kmh 29.63 in1003.4 mb 0.00 in0.0 mm 0.00 in0.0 mm 0.00 in0.0 mm
02:14 PM 80.1°F26.7°C 45.8°F7.7°C 30% 4.0 mph NNW6.4 kmh NNW 14.0 mph22.5 kmh 29.64 in1003.7 mb 0.00 in0.0 mm 0.00 in0.0 mm 0.00 in0.0 mm
02:19 PM 80.5°F26.9°C 46.2°F7.9°C 30% 3.0 mph WSW4.8 kmh WSW 14.0 mph22.5 kmh 29.64 in1003.7 mb 0.00 in0.0 mm 0.00 in0.0 mm 0.00 in0.0 mm
02:24 PM 80.7°F27.1°C 45.5°F7.5°C 29% 1.0 mph NW1.6 kmh NW 14.0 mph22.5 kmh 29.64 in1003.7 mb 0.00 in0.0 mm 0.00 in0.0 mm 0.00 in0.0 mm
02:29 PM 80.7°F27.1°C 46.4°F8.0°C 30% 6.0 mph NW9.7 kmh NW 14.0 mph22.5 kmh 29.63 in1003.4 mb 0.00 in0.0 mm 0.00 in0.0 mm 0.00 in0.0 mm
02:34 PM 80.5°F26.9°C 46.2°F7.9°C 30% 3.0 mph WSW4.8 kmh WSW 14.0 mph22.5 kmh 29.63 in1003.4 mb 0.00 in0.0 mm 0.00 in0.0 mm 0.00 in0.0 mm
02:39 PM 79.9°F26.6°C 45.7°F7.6°C 30% 5.0 mph NW8.0 kmh NW 17.0 mph27.4 kmh 29.63 in1003.4 mb 0.00 in0.0 mm 0.00 in0.0 mm 0.00 in0.0 mm
02:44 PM 79.9°F26.6°C 45.7°F7.6°C 30% 5.0 mph NW8.0 kmh NW 17.0 mph27.4 kmh 29.64 in1003.7 mb 0.00 in0.0 mm 0.00 in0.0 mm 0.00 in0.0 mm
02:49 PM 79.8°F26.6°C 45.6°F7.6°C 30% 10.0 mph W16.1 kmh W 17.0 mph27.4 kmh 29.64 in1003.7 mb 0.00 in0.0 mm 0.00 in0.0 mm 0.00 in0.0 mm
02:54 PM 79.6°F26.4°C 46.3°F7.9°C 31% 4.0 mph W6.4 kmh W 17.0 mph27.4 kmh 29.64 in1003.7 mb 0.00 in0.0 mm 0.00 in0.0 mm 0.00 in0.0 mm
02:59 PM 79.6°F26.4°C 46.3°F7.9°C 31% 15.0 mph W24.1 kmh W 15.0 mph24.1 kmh 29.64 in1003.7 mb 0.00 in0.0 mm 0.00 in0.0 mm 0.00 in0.0 mm
03:04 PM 79.4°F26.3°C 44.3°F6.8°C 29% 5.0 mph NW8.0 kmh NW 15.0 mph24.1 kmh 29.64 in1003.7 mb 0.00 in0.0 mm 0.00 in0.0 mm 0.00 in0.0 mm
03:09 PM 79.4°F26.3°C 45.2°F7.3°C 30% 9.0 mph W14.5 kmh W 15.0 mph24.1 kmh 29.64 in1003.7 mb 0.00 in0.0 mm 0.00 in0.0 mm 0.00 in0.0 mm
03:14 PM 79.4°F26.3°C 45.2°F7.3°C 30% 13.0 mph NW20.9 kmh NW 15.0 mph24.1 kmh 29.64 in1003.7 mb 0.00 in0.0 mm 0.00 in0.0 mm 0.00 in0.0 mm
03:19 PM 79.2°F26.2°C 45.1°F7.3°C 30% 8.0 mph WNW12.9 kmh WNW 15.0 mph24.1 kmh 29.64 in1003.7 mb 0.00 in0.0 mm 0.00 in0.0 mm 0.00 in0.0 mm
03:24 PM 79.0°F26.1°C 44.9°F7.2°C 30% 7.0 mph W11.3 kmh W 16.0 mph25.7 kmh 29.64 in1003.7 mb 0.00 in0.0 mm 0.00 in0.0 mm 0.00 in0.0 mm
03:29 PM 79.0°F26.1°C 44.9°F7.2°C 30% 6.0 mph NW9.7 kmh NW 16.0 mph25.7 kmh 29.64 in1003.7 mb 0.00 in0.0 mm 0.00 in0.0 mm 0.00 in0.0 mm
03:34 PM 79.2°F26.2°C 44.2°F6.8°C 29% 6.0 mph NW9.7 kmh NW 16.0 mph25.7 kmh 29.64 in1003.7 mb 0.00 in0.0 mm 0.00 in0.0 mm 0.00 in0.0 mm
03:39 PM 79.0°F26.1°C 45.8°F7.7°C 31% 7.0 mph NW11.3 kmh NW 16.0 mph25.7 kmh 29.64 in1003.7 mb 0.00 in0.0 mm 0.00 in0.0 mm 0.00 in0.0 mm
03:44 PM 78.5°F25.8°C 45.3°F7.4°C 31% 2.0 mph W3.2 kmh W 16.0 mph25.7 kmh 29.64 in1003.7 mb 0.00 in0.0 mm 0.00 in0.0 mm 0.00 in0.0 mm
03:49 PM 78.3°F25.7°C 45.2°F7.3°C 31% 10.0 mph NW16.1 kmh NW 16.0 mph25.7 kmh 29.64 in1003.7 mb 0.00 in0.0 mm 0.00 in0.0 mm 0.00 in0.0 mm
03:54 PM 78.5°F25.8°C 46.2°F7.9°C 32% 8.0 mph NW12.9 kmh NW 14.0 mph22.5 kmh 29.64 in1003.7 mb 0.00 in0.0 mm 0.00 in0.0 mm 0.00 in0.0 mm
03:59 PM 78.5°F25.8°C 44.5°F6.9°C 30% 3.0 mph N4.8 kmh N 14.0 mph22.5 kmh 29.64 in1003.7 mb 0.00 in0.0 mm 0.00 in0.0 mm 0.00 in0.0 mm
04:04 PM 78.5°F25.8°C 45.3°F7.4°C 31% 3.0 mph NW4.8 kmh NW 14.0 mph22.5 kmh 29.64 in1003.7 mb 0.00 in0.0 mm 0.00 in0.0 mm 0.00 in0.0 mm
04:09 PM 78.3°F25.7°C 45.2°F7.3°C 31% 2.0 mph N3.2 kmh N 14.0 mph22.5 kmh 29.64 in1003.7 mb 0.00 in0.0 mm 0.00 in0.0 mm 0.00 in0.0 mm
04:14 PM 78.3°F25.7°C 47.6°F8.7°C 34% 5.0 mph W8.0 kmh W 13.0 mph20.9 kmh 29.64 in1003.7 mb 0.00 in0.0 mm 0.00 in0.0 mm 0.00 in0.0 mm
04:19 PM 78.3°F25.7°C 46.0°F7.8°C 32% 11.0 mph W17.7 kmh W 14.0 mph22.5 kmh 29.64 in1003.7 mb 0.00 in0.0 mm 0.00 in0.0 mm 0.00 in0.0 mm
04:24 PM 78.3°F25.7°C 46.0°F7.8°C 32% 6.0 mph W9.7 kmh W 14.0 mph22.5 kmh 29.64 in1003.7 mb 0.00 in0.0 mm 0.00 in0.0 mm 0.00 in0.0 mm
04:29 PM 78.3°F25.7°C 46.8°F8.2°C 33% 3.0 mph NW4.8 kmh NW 14.0 mph22.5 kmh 29.64 in1003.7 mb 0.00 in0.0 mm 0.00 in0.0 mm 0.00 in0.0 mm
04:34 PM 78.3°F25.7°C 46.8°F8.2°C 33% 6.0 mph SW9.7 kmh SW 14.0 mph22.5 kmh 29.64 in1003.7 mb 0.00 in0.0 mm 0.00 in0.0 mm 0.00 in0.0 mm
04:39 PM 78.5°F25.8°C 45.3°F7.4°C 31% 7.0 mph WNW11.3 kmh WNW 11.0 mph17.7 kmh 29.64 in1003.7 mb 0.00 in0.0 mm 0.00 in0.0 mm 0.00 in0.0 mm
04:44 PM 78.6°F25.9°C 45.4°F7.4°C 31% 9.0 mph NW14.5 kmh NW 13.0 mph20.9 kmh 29.64 in1003.7 mb 0.00 in0.0 mm 0.00 in0.0 mm 0.00 in0.0 mm
04:49 PM 78.5°F25.8°C 46.2°F7.9°C 32% 5.0 mph NW8.0 kmh NW 13.0 mph20.9 kmh 29.64 in1003.7 mb 0.00 in0.0 mm 0.00 in0.0 mm 0.00 in0.0 mm
04:54 PM 78.3°F25.7°C 46.8°F8.2°C 33% 6.0 mph NW9.7 kmh NW 14.0 mph22.5 kmh 29.64 in1003.7 mb 0.00 in0.0 mm 0.00 in0.0 mm 0.00 in0.0 mm
04:59 PM 78.1°F25.6°C 46.6°F8.1°C 33% 9.0 mph NW14.5 kmh NW 14.0 mph22.5 kmh 29.64 in1003.7 mb 0.00 in0.0 mm 0.00 in0.0 mm 0.00 in0.0 mm
05:04 PM 77.7°F25.4°C 46.3°F7.9°C 33% 5.0 mph WNW8.0 kmh WNW 14.0 mph22.5 kmh 29.64 in1003.7 mb 0.00 in0.0 mm 0.00 in0.0 mm 0.00 in0.0 mm
05:09 PM 77.4°F25.2°C 46.0°F7.8°C 33% 9.0 mph W14.5 kmh W 14.0 mph22.5 kmh 29.64 in1003.7 mb 0.00 in0.0 mm 0.00 in0.0 mm 0.00 in0.0 mm
05:14 PM 77.4°F25.2°C 46.0°F7.8°C 33% 4.0 mph WNW6.4 kmh WNW 15.0 mph24.1 kmh 29.63 in1003.4 mb 0.00 in0.0 mm 0.00 in0.0 mm 0.00 in0.0 mm
05:19 PM 76.8°F24.9°C 43.9°F6.6°C 31% 6.0 mph NW9.7 kmh NW 15.0 mph24.1 kmh 29.63 in1003.4 mb 0.00 in0.0 mm 0.00 in0.0 mm 0.00 in0.0 mm
05:24 PM 76.5°F24.7°C 46.8°F8.2°C 35% 4.0 mph WNW6.4 kmh WNW 15.0 mph24.1 kmh 29.63 in1003.4 mb 0.00 in0.0 mm 0.00 in0.0 mm 0.00 in0.0 mm
05:29 PM 76.7°F24.8°C 48.4°F9.1°C 37% 6.0 mph NW9.7 kmh NW 15.0 mph24.1 kmh 29.63 in1003.4 mb 0.00 in0.0 mm 0.00 in0.0 mm 0.00 in0.0 mm
05:34 PM 76.7°F24.8°C 47.7°F8.7°C 36% 3.0 mph W4.8 kmh W 15.0 mph24.1 kmh 29.63 in1003.4 mb 0.00 in0.0 mm 0.00 in0.0 mm 0.00 in0.0 mm
05:39 PM 76.5°F24.7°C 47.5°F8.6°C 36% 7.0 mph NW11.3 kmh NW 15.0 mph24.1 kmh 29.63 in1003.4 mb 0.00 in0.0 mm 0.00 in0.0 mm 0.00 in0.0 mm
05:44 PM 76.1°F24.5°C 47.9°F8.8°C 37% 4.0 mph NW6.4 kmh NW 15.0 mph24.1 kmh 29.64 in1003.7 mb 0.00 in0.0 mm 0.00 in0.0 mm 0.00 in0.0 mm
05:49 PM 75.8°F24.3°C 48.4°F9.1°C 38% 9.0 mph W14.5 kmh W 15.0 mph24.1 kmh 29.64 in1003.7 mb 0.00 in0.0 mm 0.00 in0.0 mm 0.00 in0.0 mm
05:54 PM 75.4°F24.1°C 48.0°F8.9°C 38% 2.0 mph NW3.2 kmh NW 15.0 mph24.1 kmh 29.64 in1003.7 mb 0.00 in0.0 mm 0.00 in0.0 mm 0.00 in0.0 mm
05:59 PM 75.1°F23.9°C 47.7°F8.7°C 38% 4.0 mph SW6.4 kmh SW 15.0 mph24.1 kmh 29.65 in1004.1 mb 0.00 in0.0 mm 0.00 in0.0 mm 0.00 in0.0 mm
06:04 PM 74.6°F23.7°C 48.7°F9.3°C 40% 7.0 mph NW11.3 kmh NW 12.0 mph19.3 kmh 29.65 in1004.1 mb 0.00 in0.0 mm 0.00 in0.0 mm 0.00 in0.0 mm
06:09 PM 74.0°F23.3°C 48.8°F9.3°C 41% 3.0 mph W4.8 kmh W 12.0 mph19.3 kmh 29.65 in1004.1 mb 0.00 in0.0 mm 0.00 in0.0 mm 0.00 in0.0 mm
06:14 PM 73.7°F23.2°C 49.2°F9.6°C 42% 4.0 mph NW6.4 kmh NW 11.0 mph17.7 kmh 29.63 in1003.4 mb 0.00 in0.0 mm 0.00 in0.0 mm 0.00 in0.0 mm
06:19 PM 73.5°F23.1°C 49.0°F9.4°C 42% 4.0 mph NW6.4 kmh NW 11.0 mph17.7 kmh 29.63 in1003.4 mb 0.00 in0.0 mm 0.00 in0.0 mm 0.00 in0.0 mm
06:24 PM 73.2°F22.9°C 49.3°F9.6°C 43% 3.0 mph W4.8 kmh W 10.0 mph16.1 kmh 29.63 in1003.4 mb 0.00 in0.0 mm 0.00 in0.0 mm 0.00 in0.0 mm
06:29 PM 72.8°F22.7°C 49.6°F9.8°C 44% 3.0 mph NNE4.8 kmh NNE 11.0 mph17.7 kmh 29.63 in1003.4 mb 0.00 in0.0 mm 0.00 in0.0 mm 0.00 in0.0 mm
06:34 PM 72.3°F22.4°C 49.2°F9.6°C 44% 4.0 mph WNW6.4 kmh WNW 12.0 mph19.3 kmh 29.63 in1003.4 mb 0.00 in0.0 mm 0.00 in0.0 mm 0.00 in0.0 mm
06:39 PM 72.0°F22.2°C 50.1°F10.1°C 46% 2.0 mph NW3.2 kmh NW 12.0 mph19.3 kmh 29.63 in1003.4 mb 0.00 in0.0 mm 0.00 in0.0 mm 0.00 in0.0 mm
06:44 PM 71.5°F21.9°C 50.2°F10.1°C 47% 2.0 mph S3.2 kmh S 12.0 mph19.3 kmh 29.64 in1003.7 mb 0.00 in0.0 mm 0.00 in0.0 mm 0.00 in0.0 mm
06:49 PM 70.9°F21.6°C 50.2°F10.1°C 48% 1.0 mph SSW1.6 kmh SSW 12.0 mph19.3 kmh 29.64 in1003.7 mb 0.00 in0.0 mm 0.00 in0.0 mm 0.00 in0.0 mm
06:54 PM 70.6°F21.4°C 49.9°F9.9°C 48% 2.0 mph W3.2 kmh W 5.0 mph8.0 kmh 29.64 in1003.7 mb 0.00 in0.0 mm 0.00 in0.0 mm 0.00 in0.0 mm
06:59 PM 70.3°F21.3°C 50.2°F10.1°C 49% 5.0 mph WSW8.0 kmh WSW 5.0 mph8.0 kmh 29.65 in1004.1 mb 0.00 in0.0 mm 0.00 in0.0 mm 0.00 in0.0 mm
07:04 PM 69.9°F21.1°C 50.4°F10.2°C 50% 5.0 mph NW8.0 kmh NW 5.0 mph8.0 kmh 29.65 in1004.1 mb 0.00 in0.0 mm 0.00 in0.0 mm 0.00 in0.0 mm
07:09 PM 69.8°F21.0°C 50.3°F10.2°C 50% 4.0 mph NW6.4 kmh NW 6.0 mph9.7 kmh 29.65 in1004.1 mb 0.00 in0.0 mm 0.00 in0.0 mm 0.00 in0.0 mm
07:14 PM 69.6°F20.9°C 50.1°F10.1°C 50% 5.0 mph NW8.0 kmh NW 10.0 mph16.1 kmh 29.63 in1003.4 mb 0.00 in0.0 mm 0.00 in0.0 mm 0.00 in0.0 mm
07:19 PM 69.4°F20.8°C 50.5°F10.3°C 51% 3.0 mph NNW4.8 kmh NNW 10.0 mph16.1 kmh 29.63 in1003.4 mb 0.00 in0.0 mm 0.00 in0.0 mm 0.00 in0.0 mm
07:24 PM 69.1°F20.6°C 50.2°F10.1°C 51% 6.0 mph NW9.7 kmh NW 10.0 mph16.1 kmh 29.63 in1003.4 mb 0.00 in0.0 mm 0.00 in0.0 mm 0.00 in0.0 mm
07:29 PM 68.9°F20.5°C 50.5°F10.3°C 52% 5.0 mph NW8.0 kmh NW 10.0 mph16.1 kmh 29.64 in1003.7 mb 0.00 in0.0 mm 0.00 in0.0 mm 0.00 in0.0 mm
07:34 PM 68.6°F20.3°C 50.3°F10.2°C 52% 1.0 mph NW1.6 kmh NW 7.0 mph11.3 kmh 29.64 in1003.7 mb 0.00 in0.0 mm 0.00 in0.0 mm 0.00 in0.0 mm
07:39 PM 68.4°F20.2°C 50.6°F10.3°C 53% Calm Calm 7.0 mph11.3 kmh 29.64 in1003.7 mb 0.00 in0.0 mm 0.00 in0.0 mm 0.00 in0.0 mm
07:44 PM 68.1°F20.1°C 50.3°F10.2°C 53% Calm Calm 6.0 mph9.7 kmh 29.65 in1004.1 mb 0.00 in0.0 mm 0.00 in0.0 mm 0.00 in0.0 mm
07:49 PM 67.8°F19.9°C 50.0°F10.0°C 53% 4.0 mph NW6.4 kmh NW 6.0 mph9.7 kmh 29.65 in1004.1 mb 0.00 in0.0 mm 0.00 in0.0 mm 0.00 in0.0 mm
07:54 PM 67.6°F19.8°C 49.9°F9.9°C 53% 3.0 mph NW4.8 kmh NW 5.0 mph8.0 kmh 29.65 in1004.1 mb 0.00 in0.0 mm 0.00 in0.0 mm 0.00 in0.0 mm
07:59 PM 67.3°F19.6°C 50.1°F10.1°C 54% 1.0 mph NW1.6 kmh NW 5.0 mph8.0 kmh 29.65 in1004.1 mb 0.00 in0.0 mm 0.00 in0.0 mm 0.00 in0.0 mm
08:04 PM 66.9°F19.4°C 49.7°F9.8°C 54% 2.0 mph NW3.2 kmh NW 4.0 mph6.4 kmh 29.65 in1004.1 mb 0.00 in0.0 mm 0.00 in0.0 mm 0.00 in0.0 mm
08:09 PM 66.8°F19.3°C 50.1°F10.1°C 55% 2.0 mph NW3.2 kmh NW 4.0 mph6.4 kmh 29.65 in1004.1 mb 0.00 in0.0 mm 0.00 in0.0 mm 0.00 in0.0 mm
08:14 PM 66.4°F19.1°C 50.2°F10.1°C 56% 2.0 mph NW3.2 kmh NW 3.0 mph4.8 kmh 29.65 in1004.1 mb 0.00 in0.0 mm 0.00 in0.0 mm 0.00 in0.0 mm
08:19 PM 66.1°F18.9°C 49.9°F9.9°C 56% 1.0 mph NW1.6 kmh NW 2.0 mph3.2 kmh 29.65 in1004.1 mb 0.00 in0.0 mm 0.00 in0.0 mm 0.00 in0.0 mm
08:24 PM 65.8°F18.8°C 49.7°F9.8°C 56% Calm Calm -- 29.65 in1004.1 mb 0.00 in0.0 mm 0.00 in0.0 mm 0.00 in0.0 mm
08:29 PM 65.5°F18.6°C 49.4°F9.7°C 56% 1.0 mph NW1.6 kmh NW 2.0 mph3.2 kmh 29.65 in1004.1 mb 0.00 in0.0 mm 0.00 in0.0 mm 0.00 in0.0 mm
08:34 PM 65.3°F18.5°C 49.7°F9.8°C 57% 1.0 mph NW1.6 kmh NW 3.0 mph4.8 kmh 29.65 in1004.1 mb 0.00 in0.0 mm 0.00 in0.0 mm 0.00 in0.0 mm
08:39 PM 65.2°F18.4°C 49.6°F9.8°C 57% 1.0 mph NW1.6 kmh NW 3.0 mph4.8 kmh 29.65 in1004.1 mb 0.00 in0.0 mm 0.00 in0.0 mm 0.00 in0.0 mm
08:44 PM 65.0°F18.3°C 49.4°F9.7°C 57% Calm Calm 3.0 mph4.8 kmh 29.66 in1004.4 mb 0.00 in0.0 mm 0.00 in0.0 mm 0.00 in0.0 mm
08:49 PM 64.7°F18.2°C 49.6°F9.8°C 58% 2.0 mph NW3.2 kmh NW 3.0 mph4.8 kmh 29.66 in1004.4 mb 0.00 in0.0 mm 0.00 in0.0 mm 0.00 in0.0 mm
08:54 PM 64.5°F18.1°C 49.8°F9.9°C 59% Calm Calm 3.0 mph4.8 kmh 29.66 in1004.4 mb 0.00 in0.0 mm 0.00 in0.0 mm 0.00 in0.0 mm
08:59 PM 64.2°F17.9°C 49.6°F9.8°C 59% Calm Calm -- 29.66 in1004.4 mb 0.00 in0.0 mm 0.00 in0.0 mm 0.00 in0.0 mm
09:04 PM 63.9°F17.7°C 49.3°F9.6°C 59% Calm Calm -- 29.66 in1004.4 mb 0.00 in0.0 mm 0.00 in0.0 mm 0.00 in0.0 mm
09:09 PM 63.5°F17.5°C 48.9°F9.4°C 59% Calm Calm -- 29.66 in1004.4 mb 0.00 in0.0 mm 0.00 in0.0 mm 0.00 in0.0 mm
09:14 PM 63.2°F17.3°C 49.1°F9.5°C 60% Calm Calm -- 29.66 in1004.4 mb 0.00 in0.0 mm 0.00 in0.0 mm 0.00 in0.0 mm
09:19 PM 63.1°F17.3°C 49.0°F9.4°C 60% Calm Calm 2.0 mph3.2 kmh 29.66 in1004.4 mb 0.00 in0.0 mm 0.00 in0.0 mm 0.00 in0.0 mm
09:24 PM 62.7°F17.1°C 49.1°F9.5°C 61% Calm Calm -- 29.66 in1004.4 mb 0.00 in0.0 mm 0.00 in0.0 mm 0.00 in0.0 mm
09:29 PM 62.4°F16.9°C 48.8°F9.3°C 61% 3.0 mph NW4.8 kmh NW 3.0 mph4.8 kmh 29.67 in1004.7 mb 0.00 in0.0 mm 0.00 in0.0 mm 0.00 in0.0 mm
09:34 PM 62.3°F16.8°C 49.1°F9.5°C 62% 1.0 mph N1.6 kmh N 3.0 mph4.8 kmh 29.67 in1004.7 mb 0.00 in0.0 mm 0.00 in0.0 mm 0.00 in0.0 mm
09:39 PM 62.3°F16.8°C 49.1°F9.5°C 62% 1.0 mph N1.6 kmh N 3.0 mph4.8 kmh 29.67 in1004.7 mb 0.00 in0.0 mm 0.00 in0.0 mm 0.00 in0.0 mm
09:44 PM 62.1°F16.7°C 48.5°F9.2°C 61% 2.0 mph NE3.2 kmh NE 3.0 mph4.8 kmh 29.67 in1004.7 mb 0.00 in0.0 mm 0.00 in0.0 mm 0.00 in0.0 mm
09:49 PM 62.0°F16.7°C 48.4°F9.1°C 61% 1.0 mph NE1.6 kmh NE 3.0 mph4.8 kmh 29.67 in1004.7 mb 0.00 in0.0 mm 0.00 in0.0 mm 0.00 in0.0 mm
09:54 PM 61.8°F16.6°C 48.6°F9.2°C 62% 2.0 mph NE3.2 kmh NE 3.0 mph4.8 kmh 29.67 in1004.7 mb 0.00 in0.0 mm 0.00 in0.0 mm 0.00 in0.0 mm
09:59 PM 61.6°F16.4°C 48.4°F9.1°C 62% Calm Calm 3.0 mph4.8 kmh 29.67 in1004.7 mb 0.00 in0.0 mm 0.00 in0.0 mm 0.00 in0.0 mm
10:04 PM 61.3°F16.3°C 48.6°F9.2°C 63% Calm Calm 2.0 mph3.2 kmh 29.67 in1004.7 mb 0.00 in0.0 mm 0.00 in0.0 mm 0.00 in0.0 mm
10:09 PM 61.2°F16.2°C 48.5°F9.2°C 63% Calm Calm 2.0 mph3.2 kmh 29.67 in1004.7 mb 0.00 in0.0 mm 0.00 in0.0 mm 0.00 in0.0 mm
10:14 PM 60.9°F16.1°C 47.8°F8.8°C 62% 3.0 mph NE4.8 kmh NE 3.0 mph4.8 kmh 29.66 in1004.4 mb 0.00 in0.0 mm 0.00 in0.0 mm 0.00 in0.0 mm
10:19 PM 60.5°F15.8°C 47.4°F8.6°C 62% 3.0 mph NE4.8 kmh NE 4.0 mph6.4 kmh 29.66 in1004.4 mb 0.00 in0.0 mm 0.00 in0.0 mm 0.00 in0.0 mm
10:24 PM 60.4°F15.8°C 46.9°F8.3°C 61% 2.0 mph NE3.2 kmh NE 4.0 mph6.4 kmh 29.66 in1004.4 mb 0.00 in0.0 mm 0.00 in0.0 mm 0.00 in0.0 mm
10:29 PM 60.4°F15.8°C 46.9°F8.3°C 61% Calm Calm 4.0 mph6.4 kmh 29.67 in1004.7 mb 0.00 in0.0 mm 0.00 in0.0 mm 0.00 in0.0 mm
10:34 PM 60.2°F15.7°C 46.7°F8.2°C 61% Calm Calm 1.0 mph1.6 kmh 29.67 in1004.7 mb 0.00 in0.0 mm 0.00 in0.0 mm 0.00 in0.0 mm
10:39 PM 60.1°F15.6°C 47.0°F8.3°C 62% Calm Calm -- 29.67 in1004.7 mb 0.00 in0.0 mm 0.00 in0.0 mm 0.00 in0.0 mm
10:44 PM 60.1°F15.6°C 47.0°F8.3°C 62% Calm Calm -- 29.67 in1004.7 mb 0.00 in0.0 mm 0.00 in0.0 mm 0.00 in0.0 mm
10:49 PM 59.9°F15.5°C 47.3°F8.5°C 63% Calm Calm -- 29.67 in1004.7 mb 0.00 in0.0 mm 0.00 in0.0 mm 0.00 in0.0 mm
10:54 PM 59.6°F15.3°C 47.0°F8.3°C 63% Calm Calm 1.0 mph1.6 kmh 29.67 in1004.7 mb 0.00 in0.0 mm 0.00 in0.0 mm 0.00 in0.0 mm
10:59 PM 59.5°F15.3°C 47.3°F8.5°C 64% 2.0 mph NE3.2 kmh NE 2.0 mph3.2 kmh 29.67 in1004.7 mb 0.00 in0.0 mm 0.00 in0.0 mm 0.00 in0.0 mm
11:04 PM 59.2°F15.1°C 47.4°F8.6°C 65% Calm Calm 2.0 mph3.2 kmh 29.67 in1004.7 mb 0.00 in0.0 mm 0.00 in0.0 mm 0.00 in0.0 mm
11:09 PM 59.0°F15.0°C 47.2°F8.4°C 65% Calm Calm -- 29.67 in1004.7 mb 0.00 in0.0 mm 0.00 in0.0 mm 0.00 in0.0 mm
11:14 PM 58.7°F14.8°C 47.0°F8.3°C 65% Calm Calm -- 29.67 in1004.7 mb 0.00 in0.0 mm 0.00 in0.0 mm 0.00 in0.0 mm
11:19 PM 58.7°F14.8°C 47.4°F8.6°C 66% 2.0 mph NE3.2 kmh NE 2.0 mph3.2 kmh 29.67 in1004.7 mb 0.00 in0.0 mm 0.00 in0.0 mm 0.00 in0.0 mm
11:24 PM 58.7°F14.8°C 47.4°F8.6°C 66% Calm Calm -- 29.67 in1004.7 mb 0.00 in0.0 mm 0.00 in0.0 mm 0.00 in0.0 mm
11:29 PM 58.4°F14.7°C 47.1°F8.4°C 66% Calm Calm -- 29.67 in1004.7 mb 0.00 in0.0 mm 0.00 in0.0 mm 0.00 in0.0 mm
11:34 PM 58.3°F14.6°C 47.0°F8.3°C 66% 1.0 mph NE1.6 kmh NE 2.0 mph3.2 kmh 29.67 in1004.7 mb 0.00 in0.0 mm 0.00 in0.0 mm 0.00 in0.0 mm
11:39 PM 58.1°F14.5°C 46.8°F8.2°C 66% 1.0 mph NE1.6 kmh NE 2.0 mph3.2 kmh 29.67 in1004.7 mb 0.00 in0.0 mm 0.00 in0.0 mm 0.00 in0.0 mm
11:44 PM 58.1°F14.5°C 46.4°F8.0°C 65% 1.0 mph NE1.6 kmh NE 2.0 mph3.2 kmh 29.67 in1004.7 mb 0.00 in0.0 mm 0.00 in0.0 mm 0.00 in0.0 mm
11:49 PM 58.0°F14.4°C 46.3°F7.9°C 65% 2.0 mph NE3.2 kmh NE 3.0 mph4.8 kmh 29.67 in1004.7 mb 0.00 in0.0 mm 0.00 in0.0 mm 0.00 in0.0 mm
11:54 PM 58.0°F14.4°C 46.3°F7.9°C 65% 2.0 mph NE3.2 kmh NE 2.0 mph3.2 kmh 29.67 in1004.7 mb 0.00 in0.0 mm 0.00 in0.0 mm 0.00 in0.0 mm
11:59 PM 57.8°F14.3°C 45.7°F7.6°C 64% 2.0 mph NE3.2 kmh NE 3.0 mph4.8 kmh 29.66 in1004.4 mb 0.00 in0.0 mm 0.00 in0.0 mm 0.00 in0.0 mm